Time;durP1;ratioP1;P1;durP2;ratioP2;P2;SDS_P1;SDS_P2;PMS_P1;PMS_P2;Temp;Humidity;BMP_temperature;BMP_pressure;BME280_temperature;BME280_humidity;BME280_pressure;Samples;Min_cycle;Max_cycle;Signal;HPM_P1;HPM_P2
2022/04/12 00:00:59;;;;;;;6.90;4.05;;;6.20;97.10;;;;;;5118136;28;19964;-69
2022/04/12 00:03:25;;;;;;;7.63;3.95;;;6.20;96.40;;;;;;5118232;28;20034;-69
2022/04/12 00:05:51;;;;;;;;;;;6.20;96.80;;;;;;5120446;28;20040;-69
2022/04/12 00:08:17;;;;;;;6.57;4.05;;;6.20;96.40;;;;;;5119854;28;19916;-69
2022/04/12 00:10:43;;;;;;;7.53;4.53;;;6.20;97.40;;;;;;5119296;28;20051;-69
2022/04/12 00:13:09;;;;;;;;;;;6.20;96.70;;;;;;5119340;27;20039;-68
2022/04/12 00:15:35;;;;;;;8.15;4.13;;;6.20;96.80;;;;;;5118988;27;19915;-67
2022/04/12 00:20:44;;;;;;;10.23;4.63;;;6.10;97.50;;;;;;5101621;28;20043;-68
2022/04/12 00:23:14;;;;;;;;;;;6.20;96.40;;;;;;5106252;28;20107;-67
2022/04/12 00:25:44;;;;;;;7.93;4.00;;;6.30;96.70;;;;;;5030994;28;20356;-66
2022/04/12 00:28:11;;;;;;;10.80;5.18;;;6.30;96.80;;;;;;5007649;28;20990;-67
2022/04/12 00:30:37;;;;;;;6.60;3.60;;;6.30;96.20;;;;;;5031107;28;20039;-67
2022/04/12 00:33:02;;;;;;;;;;;6.30;97.90;;;;;;5107017;28;20032;-67
2022/04/12 00:35:28;;;;;;;7.75;3.70;;;6.30;96.20;;;;;;5105667;28;19969;-68
2022/04/12 00:37:54;;;;;;;;;;;6.40;96.50;;;;;;5105884;28;20124;-66
2022/04/12 00:40:26;;;;;;;5.45;3.30;;;6.40;96.10;;;;;;5105325;28;19983;-67
2022/04/12 00:42:53;;;;;;;11.52;4.25;;;6.40;96.20;;;;;;5105049;28;20096;-67
2022/04/12 00:45:20;;;;;;;9.18;4.50;;;6.40;95.90;;;;;;5097565;28;20118;-67
2022/04/12 00:47:46;;;;;;;7.32;3.75;;;6.40;96.20;;;;;;5106055;28;20073;-67
2022/04/12 00:50:12;;;;;;;;;;;6.40;96.30;;;;;;5106450;28;20630;-67
2022/04/12 00:52:42;;;;;;;6.85;3.92;;;6.50;95.30;;;;;;5105255;28;19915;-67
2022/04/12 00:55:08;;;;;;;8.35;4.30;;;6.50;96.20;;;;;;5105429;28;20713;-68
2022/04/12 00:57:34;;;;;;;9.38;4.25;;;6.50;96.10;;;;;;5105700;28;20534;-68
2022/04/12 01:00:01;;;;;;;10.45;4.93;;;6.50;95.80;;;;;;5105001;28;20040;-66
2022/04/12 01:02:26;;;;;;;7.35;3.70;;;6.50;95.80;;;;;;5105435;28;20044;-68
2022/04/12 01:04:52;;;;;;;;;;;6.50;96.00;;;;;;5104337;28;20715;-68
2022/04/12 01:07:19;;;;;;;8.50;4.18;;;6.50;96.70;;;;;;5102166;28;19923;-67
2022/04/12 01:09:45;;;;;;;9.25;4.30;;;6.40;96.70;;;;;;5105078;28;20740;-68
2022/04/12 01:12:11;;;;;;;6.95;4.10;;;6.40;96.00;;;;;;5104990;28;20138;-68
2022/04/12 01:14:37;;;;;;;;;;;6.50;96.10;;;;;;5105664;28;20135;-68
2022/04/12 01:17:06;;;;;;;9.02;3.97;;;6.40;96.40;;;;;;5104917;28;19915;-68
2022/04/12 01:19:32;;;;;;;8.13;3.63;;;6.40;96.90;;;;;;5105551;28;20040;-68
2022/04/12 01:22:03;;;;;;;9.98;4.15;;;6.30;97.40;;;;;;5102948;28;20495;-67
2022/04/12 01:24:30;;;;;;;7.05;3.92;;;6.30;97.30;;;;;;5105048;28;20100;-68
2022/04/12 01:26:56;;;;;;;10.57;4.15;;;6.20;99.20;;;;;;5105314;28;20043;-67
2022/04/12 01:29:22;;;;;;;;;;;6.10;98.90;;;;;;5103167;28;20047;-68
2022/04/12 01:31:48;;;;;;;9.10;4.03;;;6.00;99.00;;;;;;5103889;28;19980;-67
2022/04/12 01:34:13;;;;;;;;;;;6.00;99.00;;;;;;5104903;28;20036;-68
2022/04/12 01:36:39;;;;;;;8.32;4.00;;;6.10;99.10;;;;;;5103916;28;20011;-67
2022/04/12 01:39:05;;;;;;;7.82;3.47;;;6.00;98.80;;;;;;5104837;28;20449;-68
2022/04/12 01:41:30;;;;;;;9.25;3.88;;;6.00;98.40;;;;;;5103212;28;20035;-68
2022/04/12 01:43:56;;;;;;;5.80;3.05;;;6.00;99.30;;;;;;5101211;28;20070;-67
2022/04/12 01:46:22;;;;;;;9.13;3.58;;;5.90;99.90;;;;;;5103757;28;20051;-67
2022/04/12 01:48:49;;;;;;;6.47;3.38;;;5.90;99.80;;;;;;5105468;28;20058;-67
2022/04/12 01:51:15;;;;;;;8.30;3.47;;;5.90;99.10;;;;;;5103360;28;20071;-68
2022/04/12 01:53:41;;;;;;;8.18;4.47;;;5.90;99.10;;;;;;5104770;28;20044;-69
2022/04/12 01:56:07;;;;;;;6.68;4.10;;;5.90;99.90;;;;;;5104633;28;20104;-68
2022/04/12 01:58:34;;;;;;;7.30;4.07;;;5.80;99.90;;;;;;5103136;28;20091;-68
2022/04/12 02:01:00;;;;;;;6.38;3.70;;;5.80;99.50;;;;;;5103892;28;20507;-68
2022/04/12 02:03:25;;;;;;;8.18;4.18;;;5.80;99.90;;;;;;5103899;28;20088;-68
2022/04/12 02:05:51;;;;;;;;;;;5.80;99.90;;;;;;5104315;28;20054;-69
2022/04/12 02:08:17;;;;;;;8.40;3.90;;;5.80;99.50;;;;;;5104040;28;19912;-67
2022/04/12 02:10:43;;;;;;;6.32;3.92;;;5.90;99.70;;;;;;5104023;28;20067;-68
2022/04/12 02:13:09;;;;;;;9.85;4.65;;;5.90;99.60;;;;;;5104363;28;20073;-68
2022/04/12 02:15:34;;;;;;;;;;;5.90;99.10;;;;;;5104182;28;20154;-67
2022/04/12 02:18:00;;;;;;;7.28;4.28;;;6.00;99.20;;;;;;5104343;28;19916;-67
2022/04/12 02:20:26;;;;;;;9.75;4.50;;;5.90;99.20;;;;;;5103592;28;20035;-67
2022/04/12 02:22:51;;;;;;;;;;;6.00;98.20;;;;;;5104639;28;20039;-68
2022/04/12 02:25:17;;;;;;;8.40;4.35;;;6.00;98.80;;;;;;5104159;28;19922;-68
2022/04/12 02:27:42;;;;;;;8.77;4.07;;;6.00;98.30;;;;;;5103601;28;20043;-68
2022/04/12 02:30:09;;;;;;;7.72;4.25;;;6.00;99.00;;;;;;5103799;28;20131;-68
2022/04/12 02:32:34;;;;;;;11.27;4.20;;;5.90;99.00;;;;;;5098931;28;20079;-67
2022/04/12 02:35:00;;;;;;;6.78;3.50;;;5.90;99.90;;;;;;5082423;28;20075;-68
2022/04/12 02:37:28;;;;;;;8.68;3.92;;;5.80;99.90;;;;;;5101240;28;20052;-68
2022/04/12 02:39:54;;;;;;;10.07;4.05;;;5.80;99.90;;;;;;5103005;28;20035;-68
2022/04/12 02:42:20;;;;;;;8.73;3.85;;;5.80;99.90;;;;;;5103691;28;20043;-67
2022/04/12 02:44:45;;;;;;;7.72;4.15;;;5.70;99.90;;;;;;5086447;28;20046;-68
2022/04/12 02:47:11;;;;;;;10.65;4.20;;;5.70;99.90;;;;;;5095600;28;20123;-68
2022/04/12 02:49:37;;;;;;;10.05;4.40;;;5.80;99.90;;;;;;5102952;28;20035;-67
2022/04/12 02:52:02;;;;;;;7.88;3.78;;;5.80;99.80;;;;;;5103656;28;20063;-67
2022/04/12 02:54:28;;;;;;;;;;;5.90;99.80;;;;;;5104018;28;20040;-68
2022/04/12 02:56:53;;;;;;;7.22;4.13;;;5.90;99.90;;;;;;5103285;28;19916;-66
2022/04/12 02:59:19;;;;;;;9.30;4.28;;;5.80;99.90;;;;;;5103368;28;20051;-68
2022/04/12 03:01:44;;;;;;;11.25;5.50;;;5.80;99.90;;;;;;5102183;28;20563;-68
2022/04/12 03:04:10;;;;;;;;;;;5.90;99.90;;;;;;5103015;28;20035;-68
2022/04/12 03:06:35;;;;;;;10.90;4.70;;;5.90;99.90;;;;;;5102983;28;19920;-68
2022/04/12 03:09:01;;;;;;;;;;;5.90;99.90;;;;;;5103635;28;20415;-68
2022/04/12 03:11:26;;;;;;;8.77;4.53;;;5.90;99.90;;;;;;5103153;28;19924;-68
2022/04/12 03:13:52;;;;;;;7.00;3.97;;;5.90;99.90;;;;;;5102993;28;20047;-69
2022/04/12 03:16:18;;;;;;;;;;;5.80;99.90;;;;;;5103262;28;20052;-68
2022/04/12 03:18:44;;;;;;;9.05;4.10;;;5.80;99.90;;;;;;5103067;28;19980;-68
2022/04/12 03:21:09;;;;;;;;;;;5.80;99.90;;;;;;5103841;28;20499;-67
2022/04/12 03:23:36;;;;;;;7.22;3.92;;;5.80;99.90;;;;;;5103387;28;20321;-68
2022/04/12 03:26:02;;;;;;;7.55;4.10;;;5.80;99.90;;;;;;5102830;28;20055;-68
2022/04/12 03:28:27;;;;;;;7.82;4.13;;;5.80;99.90;;;;;;5102869;28;20051;-68
2022/04/12 03:30:53;;;;;;;8.07;4.28;;;5.80;99.90;;;;;;5101860;28;20054;-68
2022/04/12 03:33:19;;;;;;;9.98;4.05;;;5.70;99.90;;;;;;5101450;28;20031;-68
2022/04/12 03:35:44;;;;;;;8.95;5.10;;;5.70;99.90;;;;;;5103209;28;20036;-68
2022/04/12 03:38:10;;;;;;;;;;;5.70;99.90;;;;;;5100639;28;20127;-68
2022/04/12 03:40:35;;;;;;;7.70;3.92;;;5.60;99.90;;;;;;5103151;28;20290;-66
2022/04/12 03:43:04;;;;;;;6.75;4.18;;;5.60;99.90;;;;;;5103282;28;20446;-68
2022/04/12 03:45:30;;;;;;;12.77;4.22;;;5.50;99.90;;;;;;5102990;28;20058;-68
2022/04/12 03:47:56;;;;;;;8.20;4.95;;;5.50;99.90;;;;;;5103120;28;20084;-69
2022/04/12 03:50:23;;;;;;;7.35;3.47;;;5.50;99.90;;;;;;5103158;28;20040;-67
2022/04/12 03:52:49;;;;;;;7.28;4.45;;;5.40;99.90;;;;;;5104941;28;20550;-68
2022/04/12 03:55:15;;;;;;;5.97;3.90;;;5.40;99.90;;;;;;5104872;28;20051;-68
2022/04/12 03:57:41;;;;;;;9.23;4.35;;;5.40;99.90;;;;;;5106182;28;20070;-67
2022/04/12 04:00:08;;;;;;;7.80;4.40;;;5.40;99.90;;;;;;5106913;28;20035;-65
2022/04/12 04:02:37;;;;;;;8.73;4.20;;;5.40;99.90;;;;;;5105688;28;20093;-70
2022/04/12 04:05:04;;;;;;;8.27;4.43;;;5.40;99.90;;;;;;5105349;28;20054;-68
2022/04/12 04:07:29;;;;;;;8.10;4.80;;;5.30;99.90;;;;;;5106090;28;20035;-71
2022/04/12 04:09:55;;;;;;;10.23;5.03;;;5.30;99.90;;;;;;5106173;28;20043;-67
2022/04/12 04:12:20;;;;;;;;;;;5.20;99.90;;;;;;5107793;28;20046;-69
2022/04/12 04:14:47;;;;;;;13.27;5.07;;;5.20;99.90;;;;;;5107005;28;19976;-68
2022/04/12 04:17:13;;;;;;;8.93;4.45;;;5.20;99.90;;;;;;5104873;28;20036;-70
2022/04/12 04:19:39;;;;;;;9.05;4.80;;;5.20;99.90;;;;;;5105985;28;20034;-67
2022/04/12 04:22:04;;;;;;;13.57;5.47;;;5.20;99.90;;;;;;5105672;28;20047;-67
2022/04/12 04:24:30;;;;;;;;;;;5.30;99.90;;;;;;5106885;28;20043;-68
2022/04/12 04:26:56;;;;;;;8.35;4.88;;;5.30;99.90;;;;;;5106052;27;19927;-70
2022/04/12 04:29:23;;;;;;;;;;;5.30;99.90;;;;;;5106677;28;20078;-70
2022/04/12 04:31:50;;;;;;;9.88;5.82;;;5.40;99.90;;;;;;5100971;28;19916;-69
2022/04/12 04:34:16;;;;;;;11.10;5.05;;;5.50;99.90;;;;;;5105164;28;20035;-68
2022/04/12 04:36:42;;;;;;;9.70;4.93;;;5.40;99.90;;;;;;5104315;28;20044;-66
2022/04/12 04:39:07;;;;;;;11.35;5.32;;;5.40;99.90;;;;;;5100654;28;20043;-69
2022/04/12 04:41:33;;;;;;;;;;;5.40;99.90;;;;;;5085838;28;20122;-69
2022/04/12 04:43:58;;;;;;;11.10;6.15;;;5.50;99.90;;;;;;5094473;28;19931;-69
2022/04/12 04:46:24;;;;;;;9.07;5.00;;;5.50;99.90;;;;;;5104365;28;20050;-69
2022/04/12 04:48:49;;;;;;;10.02;5.47;;;5.40;99.90;;;;;;5106002;28;20084;-67
2022/04/12 04:51:15;;;;;;;11.55;5.28;;;5.40;99.90;;;;;;5104167;28;20027;-70
2022/04/12 04:53:42;;;;;;;;;;;5.40;99.90;;;;;;5105878;28;20696;-70
2022/04/12 04:56:08;;;;;;;10.27;5.25;;;5.40;99.90;;;;;;5105041;28;20120;-72
2022/04/12 04:58:34;;;;;;;9.18;5.40;;;5.50;99.90;;;;;;5104025;28;20605;-72
2022/04/12 05:01:00;;;;;;;9.60;5.13;;;5.60;99.90;;;;;;5104010;28;20050;-69
2022/04/12 05:03:27;;;;;;;9.00;5.20;;;5.70;99.90;;;;;;5105151;28;20080;-69
2022/04/12 05:05:52;;;;;;;8.25;5.05;;;5.90;99.90;;;;;;5105399;28;20048;-70
2022/04/12 05:08:18;;;;;;;;;;;6.30;99.90;;;;;;5105250;28;20043;-71
2022/04/12 05:10:44;;;;;;;7.85;4.45;;;6.90;99.90;;;;;;5105272;28;20060;-69
2022/04/12 05:13:09;;;;;;;12.52;5.57;;;7.30;99.80;;;;;;5104332;28;20066;-69
2022/04/12 05:15:35;;;;;;;9.77;5.13;;;7.40;99.20;;;;;;5101821;28;20032;-68
2022/04/12 05:18:00;;;;;;;;;;;7.60;99.20;;;;;;5105230;28;20050;-70
2022/04/12 05:20:26;;;;;;;14.88;5.93;;;8.20;98.80;;;;;;5104649;28;19957;-70
2022/04/12 05:22:52;;;;;;;;;;;8.80;96.80;;;;;;5104880;27;20388;-70
2022/04/12 05:25:18;;;;;;;7.55;4.15;;;9.30;96.00;;;;;;5103983;28;19920;-70
2022/04/12 05:27:44;;;;;;;10.75;5.47;;;9.80;95.90;;;;;;5103038;28;20031;-70
2022/04/12 05:30:12;;;;;;;;;;;10.20;93.70;;;;;;5104305;28;20110;-71
2022/04/12 05:32:37;;;;;;;11.30;5.43;;;10.20;92.00;;;;;;5102354;28;20348;-70
2022/04/12 05:35:03;;;;;;;;;;;10.30;92.50;;;;;;5105189;28;20031;-70
2022/04/12 05:37:31;;;;;;;13.27;6.32;;;10.20;92.70;;;;;;5104344;28;20006;-70
2022/04/12 05:39:56;;;;;;;12.25;5.97;;;10.00;92.90;;;;;;5099351;28;20036;-70
2022/04/12 05:42:23;;;;;;;;;;;10.00;93.10;;;;;;5104242;28;20552;-69
2022/04/12 05:44:48;;;;;;;13.30;4.88;;;10.20;93.20;;;;;;5096894;28;20500;-70
2022/04/12 05:47:14;;;;;;;;;;;10.00;94.10;;;;;;5102708;28;20088;-70
2022/04/12 05:49:39;;;;;;;12.38;4.90;;;9.80;94.80;;;;;;5103430;28;19922;-69
2022/04/12 05:52:06;;;;;;;;;;;9.60;94.70;;;;;;5104759;28;20032;-69
2022/04/12 05:54:31;;;;;;;11.57;5.45;;;9.40;95.40;;;;;;5102833;28;20365;-69
2022/04/12 05:56:57;;;;;;;;;;;9.30;94.40;;;;;;5100145;28;20635;-70
2022/04/12 05:59:23;;;;;;;9.00;5.30;;;9.20;94.10;;;;;;5087582;28;19930;-70
2022/04/12 06:01:49;;;;;;;8.52;5.03;;;9.30;94.10;;;;;;5103561;28;20544;-70
2022/04/12 06:04:14;;;;;;;13.35;6.55;;;9.20;95.40;;;;;;5103897;28;20088;-70
2022/04/12 06:06:41;;;;;;;;;;;9.20;93.90;;;;;;5104060;28;20047;-71
2022/04/12 06:09:07;;;;;;;9.17;5.70;;;9.30;94.60;;;;;;5102809;28;19919;-69
2022/04/12 06:11:33;;;;;;;9.07;4.93;;;9.30;94.80;;;;;;5104524;28;20838;-70
2022/04/12 06:13:58;;;;;;;;;;;9.30;94.70;;;;;;5103082;28;20032;-70
2022/04/12 06:16:24;;;;;;;11.40;6.32;;;9.30;94.30;;;;;;5102874;28;19927;-69
2022/04/12 06:18:50;;;;;;;;;;;9.20;94.10;;;;;;5104107;28;20176;-70
2022/04/12 06:21:16;;;;;;;9.98;5.32;;;9.10;94.70;;;;;;5103774;28;19922;-68
2022/04/12 06:23:42;;;;;;;11.57;6.00;;;9.10;94.60;;;;;;5102697;28;20039;-69
2022/04/12 06:26:07;;;;;;;;;;;9.10;94.50;;;;;;5101804;28;20801;-69
2022/04/12 06:28:33;;;;;;;13.13;7.10;;;9.10;94.20;;;;;;5092719;28;20124;-69
2022/04/12 06:30:59;;;;;;;;;;;9.00;94.20;;;;;;5102408;28;20031;-69
2022/04/12 06:33:26;;;;;;;8.97;5.20;;;9.00;94.30;;;;;;5102922;28;19927;-69
2022/04/12 06:35:51;;;;;;;11.88;6.43;;;9.00;94.50;;;;;;5102716;28;20043;-68
2022/04/12 06:38:18;;;;;;;;;;;9.10;93.70;;;;;;5099197;28;20123;-69
2022/04/12 06:40:45;;;;;;;14.45;7.28;;;9.20;93.90;;;;;;5102486;28;19977;-69
2022/04/12 06:43:11;;;;;;;10.73;6.60;;;9.20;94.30;;;;;;5102144;28;20130;-69
2022/04/12 06:45:38;;;;;;;13.30;6.63;;;9.60;93.90;;;;;;5101027;28;20039;-69
2022/04/12 06:48:04;;;;;;;15.73;6.90;;;10.10;92.90;;;;;;5102429;28;20070;-69
2022/04/12 06:50:32;;;;;;;14.93;6.75;;;10.80;92.00;;;;;;5102196;28;20040;-69
2022/04/12 06:52:58;;;;;;;12.80;7.05;;;11.10;90.60;;;;;;5097639;28;20036;-69
2022/04/12 06:55:24;;;;;;;12.93;7.07;;;11.30;91.00;;;;;;5093189;28;20039;-70
2022/04/12 06:57:49;;;;;;;;;;;11.40;90.60;;;;;;5090919;28;20519;-71
2022/04/12 07:00:18;;;;;;;11.98;7.05;;;11.30;88.90;;;;;;5092866;28;19963;-72
2022/04/12 07:02:44;;;;;;;12.90;6.70;;;11.30;90.20;;;;;;5098816;28;20047;-69
2022/04/12 07:05:10;;;;;;;12.10;6.13;;;11.60;90.10;;;;;;5101856;28;20388;-70
2022/04/12 07:07:37;;;;;;;;;;;11.70;89.70;;;;;;5097705;28;20091;-70
2022/04/12 07:10:06;;;;;;;15.52;7.22;;;11.70;86.60;;;;;;5098626;28;19927;-68
2022/04/12 07:12:32;;;;;;;13.15;6.93;;;11.40;87.20;;;;;;5097790;28;20039;-68
2022/04/12 07:14:58;;;;;;;;;;;11.70;90.10;;;;;;5093306;28;20243;-68
2022/04/12 07:17:23;;;;;;;13.05;6.65;;;12.00;88.60;;;;;;5098749;28;19957;-68
2022/04/12 07:19:49;;;;;;;;;;;12.20;87.10;;;;;;5102928;28;20055;-68
2022/04/12 07:22:15;;;;;;;11.40;6.72;;;12.40;85.70;;;;;;5103629;28;19923;-69
2022/04/12 07:24:40;;;;;;;;;;;12.50;85.60;;;;;;5102641;28;20050;-68
2022/04/12 07:27:06;;;;;;;16.60;7.28;;;12.60;84.30;;;;;;5103639;28;19920;-68
2022/04/12 07:29:31;;;;;;;;;;;12.70;84.50;;;;;;5108608;28;20040;-70
2022/04/12 07:31:57;;;;;;;12.63;6.88;;;13.10;83.80;;;;;;5089901;27;19919;-69
2022/04/12 07:34:23;;;;;;;;;;;13.10;81.90;;;;;;5084607;28;20040;-69
2022/04/12 07:36:53;;;;;;;12.68;6.50;;;13.30;81.30;;;;;;5082762;28;19920;-68
2022/04/12 07:39:20;;;;;;;12.52;6.63;;;13.20;79.90;;;;;;5081985;28;20369;-68
2022/04/12 07:41:47;;;;;;;13.85;6.70;;;13.00;81.70;;;;;;5083973;28;20935;-69
2022/04/12 07:44:13;;;;;;;11.70;6.93;;;13.00;80.40;;;;;;5068510;28;20378;-67
2022/04/12 07:46:39;;;;;;;14.77;7.97;;;13.20;80.50;;;;;;5081560;28;20040;-69
2022/04/12 07:49:04;;;;;;;;;;;13.40;79.00;;;;;;5082784;28;20552;-67
2022/04/12 07:51:30;;;;;;;19.63;6.93;;;13.70;77.40;;;;;;5082548;28;19965;-69
2022/04/12 07:53:55;;;;;;;;;;;14.70;75.70;;;;;;5082335;28;20418;-68
2022/04/12 07:56:21;;;;;;;11.07;5.82;;;15.80;73.00;;;;;;5083539;28;20015;-69
2022/04/12 07:58:46;;;;;;;;;;;16.80;68.30;;;;;;5086766;28;20064;-68
2022/04/12 08:01:12;;;;;;;11.90;7.32;;;17.60;66.00;;;;;;5085588;28;19998;-69
2022/04/12 08:03:40;;;;;;;11.40;5.85;;;17.70;61.80;;;;;;5085684;28;20535;-69
2022/04/12 08:06:05;;;;;;;12.27;7.78;;;17.80;60.40;;;;;;5081840;28;20051;-68
2022/04/12 08:08:32;;;;;;;13.30;7.47;;;18.10;60.00;;;;;;5084320;28;20829;-70
2022/04/12 08:10:58;;;;;;;11.90;6.75;;;18.20;57.80;;;;;;5082934;28;20064;-69
2022/04/12 08:13:24;;;;;;;11.85;7.32;;;17.90;57.10;;;;;;5083428;28;20105;-69
2022/04/12 08:15:50;;;;;;;11.75;6.85;;;17.80;58.60;;;;;;5085145;28;20406;-69
2022/04/12 08:18:16;;;;;;;12.30;6.85;;;17.90;56.70;;;;;;5085396;28;20062;-69
2022/04/12 08:20:42;;;;;;;13.27;6.38;;;18.00;59.10;;;;;;5087002;28;20114;-69
2022/04/12 08:23:08;;;;;;;9.65;6.25;;;18.00;58.90;;;;;;5085631;28;20032;-69
2022/04/12 08:25:34;;;;;;;13.98;7.40;;;17.70;57.10;;;;;;5081978;28;20044;-69
2022/04/12 08:28:00;;;;;;;11.90;7.55;;;17.70;57.00;;;;;;5083275;28;20115;-69
2022/04/12 08:30:26;;;;;;;12.63;7.07;;;17.50;56.60;;;;;;5085082;28;20152;-68
2022/04/12 08:32:51;;;;;;;11.82;7.20;;;17.60;57.00;;;;;;5079407;28;20566;-69
2022/04/12 08:35:17;;;;;;;10.27;6.30;;;17.90;58.00;;;;;;5071613;28;20028;-72
2022/04/12 08:37:44;;;;;;;9.55;6.20;;;17.60;57.40;;;;;;5086177;28;20042;-72
2022/04/12 08:40:10;;;;;;;13.88;6.57;;;16.90;58.40;;;;;;5085292;28;20763;-72
2022/04/12 08:42:36;;;;;;;12.35;6.43;;;16.30;59.60;;;;;;5086204;28;20036;-71
2022/04/12 08:45:03;;;;;;;;;;;15.50;61.40;;;;;;5084517;28;20040;-71
2022/04/12 08:47:31;;;;;;;12.52;6.32;;;15.10;62.90;;;;;;5085365;28;19928;-72
2022/04/12 08:50:00;;;;;;;10.35;6.25;;;14.70;66.10;;;;;;5086195;28;20043;-71
2022/04/12 08:52:26;;;;;;;11.27;7.00;;;14.40;69.20;;;;;;5085923;28;20511;-71
2022/04/12 08:54:53;;;;;;;12.45;6.55;;;14.30;69.10;;;;;;5082352;28;20104;-71
2022/04/12 08:57:18;;;;;;;13.20;6.72;;;14.20;69.40;;;;;;5085797;28;20135;-70
2022/04/12 08:59:44;;;;;;;;;;;14.10;70.90;;;;;;5086259;28;20440;-70
2022/04/12 09:02:10;;;;;;;13.10;6.97;;;14.10;70.20;;;;;;5085271;28;19915;-71
2022/04/12 09:04:36;;;;;;;;;;;14.10;70.70;;;;;;5084474;28;20040;-71
2022/04/12 09:07:06;;;;;;;12.10;7.07;;;14.00;69.80;;;;;;5085567;28;19930;-72
2022/04/12 09:09:32;;;;;;;12.73;7.18;;;13.90;69.00;;;;;;5085754;28;20126;-71
2022/04/12 09:12:02;;;;;;;;;;;13.90;70.60;;;;;;5086614;28;20119;-72
2022/04/12 09:14:42;;;;;;;12.05;7.18;;;14.00;73.80;;;;;;5085088;28;19990;-71
2022/04/12 09:17:10;;;;;;;10.60;6.38;;;14.10;72.70;;;;;;5085308;28;20039;-71
2022/04/12 09:19:46;;;;;;;15.52;6.57;;;14.10;70.30;;;;;;5086081;28;20054;-72
2022/04/12 09:22:23;;;;;;;12.25;6.35;;;14.30;71.20;;;;;;5083407;28;20044;-71
2022/04/12 09:24:58;;;;;;;10.52;6.30;;;14.30;71.30;;;;;;5083430;28;20392;-71
2022/04/12 09:27:29;;;;;;;12.93;7.55;;;14.40;71.90;;;;;;5082079;28;20090;-71
2022/04/12 09:30:04;;;;;;;11.60;6.38;;;14.40;70.10;;;;;;5084551;28;20523;-71
2022/04/12 09:32:35;;;;;;;11.65;6.35;;;14.20;72.10;;;;;;5084123;28;20445;-71
2022/04/12 09:35:01;;;;;;;11.82;5.88;;;14.40;73.00;;;;;;5079390;28;20040;-70
2022/04/12 09:37:28;;;;;;;;;;;14.50;72.70;;;;;;5079276;28;20535;-71
2022/04/12 09:40:00;;;;;;;12.60;6.70;;;14.70;71.10;;;;;;5085288;28;19916;-72
2022/04/12 09:42:40;;;;;;;10.80;6.22;;;14.60;69.00;;;;;;5083264;28;20044;-72
2022/04/12 09:45:08;;;;;;;12.20;6.80;;;14.80;71.70;;;;;;5079522;28;20036;-73
2022/04/12 09:47:34;;;;;;;16.42;6.55;;;14.90;68.60;;;;;;5071544;28;20451;-71
2022/04/12 09:50:00;;;;;;;;;;;14.70;69.10;;;;;;5079034;28;20032;-72
2022/04/12 09:52:27;;;;;;;12.30;6.72;;;14.80;70.20;;;;;;5081196;28;19916;-71
2022/04/12 09:54:56;;;;;;;15.43;6.40;;;14.70;68.80;;;;;;5079211;28;20551;-73
2022/04/12 09:57:22;;;;;;;12.18;6.40;;;14.80;67.50;;;;;;5072672;28;20119;-70
2022/04/12 09:59:48;;;;;;;11.43;6.50;;;15.00;72.50;;;;;;5084781;28;20101;-72
2022/04/12 10:02:14;;;;;;;;;;;15.00;67.90;;;;;;5084342;28;20068;-71
2022/04/12 10:04:42;;;;;;;12.98;6.65;;;14.90;72.40;;;;;;5084689;28;19920;-72
2022/04/12 10:07:10;;;;;;;10.65;6.40;;;14.80;68.40;;;;;;5084100;28;20047;-71
2022/04/12 10:09:37;;;;;;;10.90;6.55;;;14.70;74.30;;;;;;5077729;28;20830;-71
2022/04/12 10:12:06;;;;;;;13.57;6.72;;;15.00;71.40;;;;;;5084513;28;20619;-72
2022/04/12 10:14:32;;;;;;;11.73;5.97;;;15.20;69.10;;;;;;5081538;28;20036;-71
2022/04/12 10:16:59;;;;;;;11.80;6.53;;;15.20;71.60;;;;;;5081751;28;20035;-74
2022/04/12 10:19:25;;;;;;;14.80;6.47;;;15.20;67.00;;;;;;5080842;28;20040;-72
2022/04/12 10:21:50;;;;;;;;;;;15.30;70.30;;;;;;5081089;28;20522;-75
2022/04/12 10:24:18;;;;;;;15.93;5.75;;;15.30;68.40;;;;;;5079546;28;19947;-71
2022/04/12 10:26:45;;;;;;;11.93;6.60;;;15.30;71.70;;;;;;5081517;28;20608;-73
2022/04/12 10:29:13;;;;;;;11.13;6.43;;;15.30;69.20;;;;;;5079787;28;20071;-70
2022/04/12 10:31:52;;;;;;;17.00;7.03;;;15.30;69.80;;;;;;5077817;28;20450;-68
2022/04/12 10:34:18;;;;;;;11.00;5.57;;;15.50;69.10;;;;;;5076876;28;20036;-68
2022/04/12 10:37:04;;;;;;;;;;;15.40;66.80;;;;;;5080797;28;20050;-68
2022/04/12 10:39:53;;;;;;;12.88;6.63;;;15.40;67.40;;;;;;5083022;28;19916;-69
2022/04/12 10:42:24;;;;;;;10.80;6.40;;;15.30;69.10;;;;;;5079926;28;20047;-68
2022/04/12 10:44:56;;;;;;;12.57;6.57;;;15.40;68.50;;;;;;5083115;28;20115;-68
2022/04/12 10:47:29;;;;;;;24.05;6.63;;;15.50;68.40;;;;;;5083125;28;20051;-68
2022/04/12 10:50:00;;;;;;;10.13;5.40;;;15.80;69.40;;;;;;5083565;28;20044;-69
2022/04/12 10:52:41;;;;;;;11.85;5.65;;;16.00;68.10;;;;;;5083588;28;20446;-69
2022/04/12 10:55:09;;;;;;;12.20;5.45;;;16.10;67.50;;;;;;5080711;28;20039;-72
2022/04/12 10:57:35;;;;;;;11.25;5.47;;;16.20;68.90;;;;;;5074355;28;20084;-71
2022/04/12 11:00:14;;;;;;;;;;;16.40;69.20;;;;;;5075603;28;20419;-71
2022/04/12 11:02:58;;;;;;;10.88;6.20;;;16.20;66.30;;;;;;5092179;28;19916;-71
2022/04/12 11:05:35;;;;;;;16.85;5.65;;;16.20;67.00;;;;;;5096213;28;20048;-72
2022/04/12 11:08:13;;;;;;;12.07;6.32;;;16.30;70.20;;;;;;5103500;28;20040;-71
2022/04/12 11:11:06;;;;;;;11.40;5.72;;;16.20;64.70;;;;;;5083820;28;20123;-71
2022/04/12 11:13:33;;;;;;;8.60;4.80;;;16.00;66.10;;;;;;5080535;28;20056;-72
2022/04/12 11:16:08;;;;;;;12.30;6.43;;;16.30;68.10;;;;;;5098425;28;20074;-71
2022/04/12 11:18:58;;;;;;;11.60;5.75;;;16.40;66.40;;;;;;5095097;28;20394;-71
2022/04/12 11:21:48;;;;;;;10.05;4.97;;;16.40;66.20;;;;;;5084455;28;20048;-72
2022/04/12 11:24:15;;;;;;;10.95;5.15;;;16.40;67.90;;;;;;5100896;28;20154;-70
2022/04/12 11:26:47;;;;;;;14.75;4.80;;;16.60;67.40;;;;;;5107506;28;20067;-69
2022/04/12 11:29:26;;;;;;;9.65;5.45;;;16.60;68.10;;;;;;5101515;28;20035;-69
2022/04/12 11:31:53;;;;;;;8.05;4.82;;;16.50;66.50;;;;;;5098901;28;20100;-69
2022/04/12 11:34:20;;;;;;;9.32;5.38;;;16.50;70.30;;;;;;5092323;28;20044;-72
2022/04/12 11:36:52;;;;;;;9.60;5.28;;;16.60;68.20;;;;;;5097234;28;20089;-70
2022/04/12 11:39:18;;;;;;;8.02;4.78;;;16.70;69.30;;;;;;5101746;28;20040;-72
2022/04/12 11:41:44;;;;;;;;;;;16.70;70.30;;;;;;5038074;28;20058;-75
2022/04/12 11:44:09;;;;;;;11.55;5.53;;;16.70;68.10;;;;;;5093382;28;20457;-69
2022/04/12 11:46:36;;;;;;;;;;;16.60;69.20;;;;;;5096083;28;20912;-69
2022/04/12 11:49:06;;;;;;;11.52;5.68;;;16.70;71.80;;;;;;5098597;28;20380;-70
2022/04/12 11:51:37;;;;;;;11.75;5.50;;;16.60;67.50;;;;;;5098828;28;20720;-72
2022/04/12 11:54:28;;;;;;;10.07;5.78;;;16.70;68.60;;;;;;5090108;28;20096;-73
2022/04/12 11:57:11;;;;;;;9.60;5.07;;;16.90;69.60;;;;;;5094398;28;20693;-73
2022/04/12 11:59:52;;;;;;;9.10;5.70;;;17.00;70.00;;;;;;5099111;28;20047;-72
2022/04/12 12:02:20;;;;;;;8.07;4.95;;;17.10;70.00;;;;;;5113694;27;20430;-72
2022/04/12 12:04:54;;;;;;;9.05;4.80;;;17.20;68.10;;;;;;5107161;28;20635;-72
2022/04/12 12:07:20;;;;;;;9.38;5.28;;;17.20;68.40;;;;;;5101130;27;20071;-74
2022/04/12 12:10:03;;;;;;;9.77;5.25;;;17.20;67.90;;;;;;5095175;28;20092;-71
2022/04/12 12:12:35;;;;;;;13.65;5.00;;;17.00;70.90;;;;;;5083895;28;20101;-72
2022/04/12 12:15:25;;;;;;;9.70;4.78;;;17.10;68.60;;;;;;5090665;28;20114;-72
2022/04/12 12:17:57;;;;;;;8.63;4.25;;;17.20;69.90;;;;;;5099751;28;20636;-74
2022/04/12 12:20:25;;;;;;;10.68;5.30;;;17.40;72.40;;;;;;5086872;28;20048;-71
2022/04/12 12:22:53;;;;;;;11.25;5.50;;;17.30;68.10;;;;;;5086259;28;20032;-71
2022/04/12 12:25:19;;;;;;;8.65;5.00;;;17.10;69.40;;;;;;5084985;28;20117;-71
2022/04/12 12:27:48;;;;;;;;;;;17.20;70.80;;;;;;5106760;28;20703;-74
2022/04/12 12:30:27;;;;;;;8.40;4.97;;;17.30;74.10;;;;;;5106816;27;20550;-72
2022/04/12 12:32:56;;;;;;;10.80;5.68;;;17.30;70.70;;;;;;5108459;27;20739;-72
2022/04/12 12:35:25;;;;;;;8.65;4.68;;;17.40;70.50;;;;;;5104877;28;20043;-73
2022/04/12 12:38:16;;;;;;;9.80;4.63;;;17.40;72.40;;;;;;5095293;28;20078;-71
2022/04/12 12:40:44;;;;;;;13.27;4.45;;;17.50;71.50;;;;;;5098938;28;20096;-72
2022/04/12 12:43:12;;;;;;;9.43;5.10;;;17.60;72.20;;;;;;5105833;28;20051;-73
2022/04/12 12:45:45;;;;;;;8.52;4.93;;;17.70;70.80;;;;;;5096970;28;20044;-72
2022/04/12 12:48:15;;;;;;;13.75;5.28;;;17.80;71.10;;;;;;5097259;28;20137;-72
2022/04/12 12:50:42;;;;;;;10.13;4.47;;;17.90;70.70;;;;;;5104899;28;20099;-73
2022/04/12 12:53:11;;;;;;;8.32;4.80;;;18.00;72.50;;;;;;5086288;28;20043;-73
2022/04/12 12:55:41;;;;;;;7.80;3.80;;;18.00;69.20;;;;;;5086429;28;20047;-71
2022/04/12 12:58:13;;;;;;;8.23;4.05;;;18.00;68.60;;;;;;5085086;28;20122;-73
2022/04/12 13:00:39;;;;;;;11.02;3.67;;;18.10;71.30;;;;;;5085135;28;20058;-72
2022/04/12 13:03:16;;;;;;;5.63;2.95;;;18.10;68.10;;;;;;5104587;28;20040;-72
2022/04/12 13:05:58;;;;;;;12.65;4.10;;;18.10;69.80;;;;;;5103441;28;20546;-72
2022/04/12 13:08:25;;;;;;;11.48;3.40;;;18.00;68.20;;;;;;5098915;28;20040;-72